createdAt,value
2022-08-11T00:00:21.739Z,101089.06
2022-08-11T00:01:26.814Z,101096.63
2022-08-11T00:02:34.298Z,101095.28
2022-08-11T00:03:43.829Z,101079.09
2022-08-11T00:04:46.728Z,101093.09
2022-08-11T00:05:54.908Z,101087.78
2022-08-11T00:07:02.516Z,101084.47
2022-08-11T00:08:05.206Z,101088.41
2022-08-11T00:09:11.600Z,101082.25
2022-08-11T00:10:16.429Z,101089.84
2022-08-11T00:11:21.368Z,101092.94
2022-08-11T00:12:23.978Z,101088.47
2022-08-11T00:13:39.128Z,101086.28
2022-08-11T00:14:42.956Z,101095.81
2022-08-11T00:15:45.818Z,101086.06
2022-08-11T00:17:10.877Z,101090.00
2022-08-11T00:18:13.962Z,101095.09
2022-08-11T00:20:12.208Z,101092.28
2022-08-11T00:20:45.657Z,101090.63
2022-08-11T00:22:04.001Z,101094.53
2022-08-11T00:23:11.951Z,101095.97
2022-08-11T00:24:15.388Z,101096.81
2022-08-11T00:25:20.557Z,101094.63
2022-08-11T00:26:24.140Z,101094.06
2022-08-11T00:27:34.979Z,101098.84
2022-08-11T00:28:37.536Z,101094.69
2022-08-11T00:29:51.499Z,101102.28
2022-08-11T00:30:59.935Z,101096.13
2022-08-11T00:32:13.500Z,101099.25
2022-08-11T00:33:17.265Z,101103.16
2022-08-11T00:34:25.493Z,101104.31
2022-08-11T00:35:51.967Z,101104.31
2022-08-11T00:37:01.157Z,101102.13
2022-08-11T00:38:07.469Z,101104.09
2022-08-11T00:39:11.231Z,101112.78
2022-08-11T00:40:23.341Z,101109.97
2022-08-11T00:41:42.148Z,101112.25
2022-08-11T00:43:24.994Z,101103.63
2022-08-11T00:44:45.401Z,101106.72
2022-08-11T00:46:26.670Z,101103.38
2022-08-11T00:48:00.337Z,101108.44
2022-08-11T00:49:16.919Z,101102.28
2022-08-11T00:50:22.630Z,101106.53
2022-08-11T00:52:03.887Z,101110.75
2022-08-11T00:53:26.284Z,101102.97
2022-08-11T00:54:55.977Z,101104.72
2022-08-11T00:56:36.985Z,101103.34
2022-08-11T00:58:12.735Z,101109.81
2022-08-11T00:59:58.839Z,101108.16
2022-08-11T01:01:14.942Z,101105.13
2022-08-11T01:02:39.282Z,101109.66
2022-08-11T01:04:11.417Z,101102.97
2022-08-11T01:05:52.844Z,101103.59
2022-08-11T01:07:06.913Z,101106.97
2022-08-11T01:08:57.135Z,101107.88
2022-08-11T01:10:43.268Z,101105.13
2022-08-11T01:12:15.778Z,101105.72
2022-08-11T01:13:55.487Z,101110.25
2022-08-11T01:15:31.734Z,101112.56
2022-08-11T01:17:25.434Z,101112.63
2022-08-11T01:18:44.641Z,101112.97
2022-08-11T01:20:44.724Z,101112.44
2022-08-11T01:22:18.240Z,101114.72
2022-08-11T01:23:38.192Z,101113.63
2022-08-11T01:25:14.487Z,101112.84
2022-08-11T01:26:35.575Z,101114.56
2022-08-11T01:27:56.680Z,101112.38
2022-08-11T01:29:11.956Z,101102.06
2022-08-11T01:30:39.345Z,101107.38
2022-08-11T01:32:00.997Z,101105.19
2022-08-11T01:33:34.653Z,101109.72
2022-08-11T01:34:55.593Z,101114.22
2022-08-11T01:36:53.428Z,101106.41
2022-08-11T01:38:12.884Z,101105.63
2022-08-11T01:39:30.431Z,101117.09
2022-08-11T01:40:47.352Z,101112.38
2022-08-11T01:42:52.661Z,101118.53
2022-08-11T01:44:38.011Z,101108.22
2022-08-11T01:46:01.275Z,101108.81
2022-08-11T01:47:36.153Z,101110.53
2022-08-11T01:48:57.207Z,101110.28
2022-08-11T01:50:21.525Z,101110.56
2022-08-11T01:52:02.174Z,101108.63
2022-08-11T01:53:27.232Z,101101.66
2022-08-11T01:54:53.753Z,101106.66
2022-08-11T01:56:05.178Z,101106.13
2022-08-11T01:57:10.430Z,101104.47
2022-08-11T01:58:43.344Z,101099.16
2022-08-11T01:59:51.956Z,101103.38
2022-08-11T02:01:16.663Z,101102.00
2022-08-11T02:02:50.781Z,101106.75
2022-08-11T02:04:04.751Z,101108.16
2022-08-11T02:05:39.196Z,101107.59
2022-08-11T02:06:59.033Z,101103.44
2022-08-11T02:08:32.884Z,101101.47
2022-08-11T02:10:43.023Z,101100.63
2022-08-11T02:12:02.585Z,101098.97
2022-08-11T02:13:35.636Z,101100.06
2022-08-11T02:15:37.728Z,101096.75
2022-08-11T02:16:42.644Z,101099.56
2022-08-11T02:18:23.764Z,101102.94
2022-08-11T02:20:10.245Z,101099.88
2022-08-11T02:21:45.950Z,101090.63
2022-08-11T02:24:03.868Z,101096.53
2022-08-11T02:25:24.068Z,101098.50
2022-08-11T02:26:42.151Z,101101.28
2022-08-11T02:27:51.966Z,101096.00
2022-08-11T02:29:27.899Z,101096.00
2022-08-11T02:30:35.585Z,101095.44
2022-08-11T02:32:15.747Z,101095.44
2022-08-11T02:33:27.521Z,101092.06
2022-08-11T02:34:59.249Z,101100.19
2022-08-11T02:36:21.333Z,101097.66
2022-08-11T02:37:45.350Z,101096.84
2022-08-11T02:39:15.006Z,101098.81
2022-08-11T02:40:31.318Z,101104.38
2022-08-11T02:42:32.857Z,101097.13
2022-08-11T02:43:59.519Z,101101.31
2022-08-11T02:45:34.653Z,101104.13
2022-08-11T02:47:01.796Z,101104.41
2022-08-11T02:48:44.581Z,101105.81
2022-08-11T02:50:13.539Z,101103.28
2022-08-11T02:51:42.764Z,101107.22
2022-08-11T02:52:59.795Z,101107.53
2022-08-11T02:54:32.610Z,101098.59
2022-08-11T02:55:58.445Z,101111.97
2022-08-11T02:57:33.505Z,101109.19
2022-08-11T02:58:41.200Z,101109.47
2022-08-11T02:59:53.750Z,101102.22
2022-08-11T03:01:09.259Z,101108.09
2022-08-11T03:02:50.384Z,101111.72
2022-08-11T03:04:07.058Z,101108.09
2022-08-11T03:05:18.053Z,101117.56
2022-08-11T03:06:39.044Z,101118.72
2022-08-11T03:07:56.048Z,101114.25
2022-08-11T03:09:11.325Z,101120.13
2022-08-11T03:10:21.590Z,101116.47
2022-08-11T03:12:08.654Z,101127.94
2022-08-11T03:13:44.474Z,101123.47
2022-08-11T03:15:34.939Z,101130.44
2022-08-11T03:16:55.230Z,101122.66
2022-08-11T03:18:25.193Z,101122.66
2022-08-11T03:19:54.902Z,101122.38
2022-08-11T03:21:07.339Z,101127.44
2022-08-11T03:22:51.721Z,101126.88
2022-08-11T03:24:09.115Z,101125.47
2022-08-11T03:25:22.812Z,101126.06
2022-08-11T03:26:47.324Z,101128.25
2022-08-11T03:28:22.689Z,101124.06
2022-08-11T03:29:51.834Z,101123.78
2022-08-11T03:31:24.912Z,101121.56
2022-08-11T03:32:37.929Z,101119.91
2022-08-11T03:34:08.069Z,101118.50
2022-08-11T03:35:17.815Z,101116.00
2022-08-11T03:37:14.888Z,101121.88
2022-08-11T03:38:13.816Z,101117.69
2022-08-11T03:39:51.097Z,101118.81
2022-08-11T03:42:01.722Z,101125.22
2022-08-11T03:43:37.075Z,101126.63
2022-08-11T03:45:14.563Z,101123.28
2022-08-11T03:46:45.488Z,101122.72
2022-08-11T03:48:11.732Z,101123.88
2022-08-11T03:49:51.231Z,101122.47
2022-08-11T03:51:11.828Z,101125.50
2022-08-11T03:52:14.488Z,101124.13
2022-08-11T03:53:28.234Z,101121.63
2022-08-11T03:54:47.243Z,101117.16
2022-08-11T03:56:47.904Z,101115.75
2022-08-11T03:57:59.467Z,101111.59
2022-08-11T03:59:54.075Z,101110.75
2022-08-11T04:01:44.831Z,101115.78
2022-08-11T04:03:22.599Z,101108.81
2022-08-11T04:04:55.138Z,101113.56
2022-08-11T04:06:41.747Z,101110.47
2022-08-11T04:08:00.964Z,101111.63
2022-08-11T04:09:46.930Z,101111.06
2022-08-11T04:11:11.001Z,101106.88
2022-08-11T04:12:53.636Z,101108.84
2022-08-11T04:14:45.244Z,101101.88
2022-08-11T04:16:12.831Z,101110.47
2022-08-11T04:17:28.261Z,101107.16
2022-08-11T04:19:04.424Z,101104.66
2022-08-11T04:20:32.024Z,101103.81
2022-08-11T04:22:04.226Z,101106.88
2022-08-11T04:24:36.972Z,101099.91
2022-08-11T04:26:18.728Z,101102.69
2022-08-11T04:27:40.095Z,101108.84
2022-08-11T04:28:55.702Z,101112.44
2022-08-11T04:30:08.933Z,101112.44
2022-08-11T04:31:51.320Z,101112.16
2022-08-11T04:33:25.509Z,101115.81
2022-08-11T04:34:41.172Z,101118.03
2022-08-11T04:36:48.535Z,101114.13
2022-08-11T04:38:09.074Z,101116.63
2022-08-11T04:39:28.126Z,101118.03
2022-08-11T04:40:52.776Z,101116.63
2022-08-11T04:42:51.425Z,101119.69
2022-08-11T04:44:24.227Z,101114.94
2022-08-11T04:45:29.582Z,101120.50
2022-08-11T04:47:10.035Z,101115.50
2022-08-11T04:48:36.588Z,101116.31
2022-08-11T04:50:20.821Z,101114.06
2022-08-11T04:52:18.800Z,101112.13
2022-08-11T04:54:07.618Z,101118.22
2022-08-11T04:56:07.002Z,101107.34
2022-08-11T04:57:38.742Z,101118.22
2022-08-11T04:59:08.725Z,101118.75
2022-08-11T05:00:32.933Z,101111.16
2022-08-11T05:01:44.271Z,101107.78
2022-08-11T05:03:26.674Z,101123.38
2022-08-11T05:05:00.349Z,101114.13
2022-08-11T05:06:30.025Z,101111.22
2022-08-11T05:07:59.494Z,101113.69
2022-08-11T05:09:19.957Z,101120.59
2022-08-11T05:10:43.704Z,101116.09
2022-08-11T05:12:01.663Z,101115.41
2022-08-11T05:13:31.828Z,101119.81
2022-08-11T05:15:00.252Z,101115.47
2022-08-11T05:16:30.542Z,101113.66
2022-08-11T05:17:56.703Z,101122.22
2022-08-11T05:19:18.773Z,101115.13
2022-08-11T05:20:42.049Z,101114.97
2022-08-11T05:22:12.001Z,101122.63
2022-08-11T05:23:35.277Z,101121.09
2022-08-11T05:25:04.678Z,101121.19
2022-08-11T05:26:47.954Z,101125.78
2022-08-11T05:28:17.025Z,101122.47
2022-08-11T05:30:03.118Z,101126.50
2022-08-11T05:31:31.314Z,101132.19
2022-08-11T05:33:01.433Z,101124.97
2022-08-11T05:34:38.914Z,101130.34
2022-08-11T05:36:00.506Z,101127.59
2022-08-11T05:37:25.801Z,101132.53
2022-08-11T05:38:52.356Z,101133.16
2022-08-11T05:40:30.724Z,101125.63
2022-08-11T05:41:51.845Z,101133.22
2022-08-11T05:43:21.370Z,101125.97
2022-08-11T05:44:45.943Z,101127.97
2022-08-11T05:46:22.485Z,101129.66
2022-08-11T05:47:45.007Z,101130.78
2022-08-11T05:49:07.004Z,101137.22
2022-08-11T05:50:37.236Z,101134.41
2022-08-11T05:52:05.004Z,101135.50
2022-08-11T05:53:36.041Z,101137.16
2022-08-11T05:55:08.835Z,101139.94
2022-08-11T05:56:20.556Z,101135.69
2022-08-11T05:57:49.878Z,101141.91
2022-08-11T05:58:53.437Z,101137.34
2022-08-11T06:00:10.505Z,101135.16
2022-08-11T06:01:20.995Z,101144.97
2022-08-11T06:02:24.274Z,101140.25
2022-08-11T06:03:29.022Z,101129.19
2022-08-11T06:04:32.680Z,101141.31
2022-08-11T06:05:38.645Z,101141.03
2022-08-11T06:07:10.551Z,101144.28
2022-08-11T06:08:14.547Z,101141.50
2022-08-11T06:09:23.898Z,101140.06
2022-08-11T06:10:35.391Z,101136.59
2022-08-11T06:11:44.966Z,101137.09
2022-08-11T06:12:53.837Z,101140.13
2022-08-11T06:13:57.678Z,101133.84
2022-08-11T06:15:12.278Z,101140.50
2022-08-11T06:16:21.526Z,101132.84
2022-08-11T06:17:26.551Z,101140.31
2022-08-11T06:18:48.307Z,101136.47
2022-08-11T06:20:06.999Z,101138.59
2022-08-11T06:21:11.549Z,101145.25
2022-08-11T06:22:19.973Z,101140.09
2022-08-11T06:23:24.108Z,101151.50
2022-08-11T06:24:29.313Z,101144.66
2022-08-11T06:25:35.932Z,101148.75
2022-08-11T06:27:08.639Z,101142.75
2022-08-11T06:28:07.057Z,101138.56
2022-08-11T06:29:11.476Z,101142.31
2022-08-11T06:30:18.940Z,101144.25
2022-08-11T06:31:25.815Z,101143.50
2022-08-11T06:32:38.186Z,101152.06
2022-08-11T06:33:58.065Z,101142.00
2022-08-11T06:35:03.198Z,101141.59
2022-08-11T06:36:43.201Z,101147.81
2022-08-11T06:38:12.236Z,101144.34
2022-08-11T06:39:24.665Z,101142.41
2022-08-11T06:41:09.797Z,101155.44
2022-08-11T06:42:25.464Z,101145.91
2022-08-11T06:43:55.343Z,101154.59
2022-08-11T06:45:11.335Z,101153.09
2022-08-11T06:46:28.253Z,101145.78
2022-08-11T06:47:31.480Z,101155.13
2022-08-11T06:48:35.387Z,101152.63
2022-08-11T06:50:03.925Z,101144.47
2022-08-11T06:51:13.245Z,101146.16
2022-08-11T06:52:45.083Z,101144.00
2022-08-11T06:54:04.343Z,101142.06
2022-08-11T06:55:55.847Z,101150.53
2022-08-11T06:57:26.352Z,101147.28
2022-08-11T06:58:40.153Z,101147.03
2022-08-11T07:00:07.718Z,101143.03
2022-08-11T07:01:13.496Z,101142.63
2022-08-11T07:02:43.376Z,101149.16
2022-08-11T07:03:54.672Z,101141.75
2022-08-11T07:05:04.440Z,101145.69
2022-08-11T07:06:25.111Z,101145.97
2022-08-11T07:08:33.695Z,101148.78
2022-08-11T07:10:00.658Z,101144.41
2022-08-11T07:11:29.041Z,101149.59
2022-08-11T07:13:04.359Z,101144.22
2022-08-11T07:14:33.901Z,101139.25
2022-08-11T07:16:13.138Z,101147.19
2022-08-11T07:17:08.782Z,101138.44
2022-08-11T07:18:54.282Z,101139.47
2022-08-11T07:20:25.108Z,101146.59
2022-08-11T07:22:02.345Z,101142.31
2022-08-11T07:23:27.933Z,101142.56
2022-08-11T07:25:05.132Z,101146.44
2022-08-11T07:26:28.226Z,101142.94
2022-08-11T07:28:02.018Z,101150.50
2022-08-11T07:29:07.082Z,101140.13
2022-08-11T07:30:10.778Z,101140.69
2022-08-11T07:31:40.793Z,101141.72
2022-08-11T07:32:52.994Z,101145.13
2022-08-11T07:34:23.564Z,101139.53
2022-08-11T07:35:35.180Z,101133.53
2022-08-11T07:36:41.299Z,101135.72
2022-08-11T07:37:50.976Z,101137.47
2022-08-11T07:39:04.271Z,101133.94
2022-08-11T07:40:07.721Z,101130.75
2022-08-11T07:41:15.500Z,101137.41
2022-08-11T07:42:27.724Z,101135.47
2022-08-11T07:43:30.089Z,101128.56
2022-08-11T07:45:01.752Z,101131.97
2022-08-11T07:46:23.826Z,101128.38
2022-08-11T07:47:46.257Z,101135.81
2022-08-11T07:49:07.748Z,101133.41
2022-08-11T07:50:29.909Z,101127.69
2022-08-11T07:51:52.542Z,101130.66
2022-08-11T07:52:56.243Z,101130.31
2022-08-11T07:54:07.547Z,101129.97
2022-08-11T07:55:49.587Z,101126.75
2022-08-11T07:56:54.911Z,101126.84
2022-08-11T07:58:19.848Z,101132.22
2022-08-11T08:00:03.958Z,101126.13
2022-08-11T08:01:43.203Z,101125.00
2022-08-11T08:03:04.565Z,101129.56
2022-08-11T08:04:28.059Z,101125.56
2022-08-11T08:05:49.708Z,101128.91
2022-08-11T08:07:11.291Z,101122.00
2022-08-11T08:08:33.969Z,101124.56
2022-08-11T08:09:55.849Z,101114.38
2022-08-11T08:11:20.311Z,101124.25
2022-08-11T08:12:45.948Z,101112.44
2022-08-11T08:14:08.184Z,101116.16
2022-08-11T08:15:33.070Z,101111.72
2022-08-11T08:16:56.064Z,101108.50
2022-08-11T08:18:09.287Z,101105.72
2022-08-11T08:19:23.095Z,101103.72
2022-08-11T08:20:31.532Z,101106.22
2022-08-11T08:21:33.957Z,101096.44
2022-08-11T08:22:37.905Z,101096.47
2022-08-11T08:23:45.453Z,101092.00
2022-08-11T08:24:49.077Z,101092.47
2022-08-11T08:25:52.428Z,101092.06
2022-08-11T08:26:58.530Z,101089.63
2022-08-11T08:28:05.731Z,101099.06
2022-08-11T08:29:31.141Z,101095.03
2022-08-11T08:30:50.653Z,101093.78
2022-08-11T08:31:54.300Z,101089.75
2022-08-11T08:32:57.910Z,101095.09
2022-08-11T08:34:00.202Z,101084.44
2022-08-11T08:35:04.735Z,101084.03
2022-08-11T08:36:14.862Z,101082.81
2022-08-11T08:37:44.942Z,101088.97
2022-08-11T08:38:56.681Z,101078.72
2022-08-11T08:39:59.414Z,101084.47
2022-08-11T08:41:02.728Z,101090.22
2022-08-11T08:42:11.885Z,101082.44
2022-08-11T08:43:17.549Z,101086.09
2022-08-11T08:44:40.920Z,101083.63
2022-08-11T08:45:44.218Z,101081.97
2022-08-11T08:46:50.572Z,101082.41
2022-08-11T08:48:02.538Z,101077.09
2022-08-11T08:49:05.543Z,101082.81
2022-08-11T08:50:16.698Z,101073.00
2022-08-11T08:52:02.440Z,101074.63
2022-08-11T08:53:02.114Z,101076.28
2022-08-11T08:54:10.591Z,101074.66
2022-08-11T08:55:20.653Z,101075.44
2022-08-11T08:56:28.433Z,101075.03
2022-08-11T08:57:39.146Z,101077.06
2022-08-11T08:58:45.688Z,101070.13
2022-08-11T08:59:51.387Z,101068.88
2022-08-11T09:00:56.791Z,101070.91
2022-08-11T09:02:01.947Z,101081.13
2022-08-11T09:03:22.983Z,101073.34
2022-08-11T09:04:28.280Z,101070.41
2022-08-11T09:05:30.694Z,101059.78
2022-08-11T09:06:34.072Z,101059.31
2022-08-11T09:07:39.751Z,101059.72
2022-08-11T09:08:44.490Z,101058.47
2022-08-11T09:09:50.974Z,101056.34
2022-08-11T09:11:14.852Z,101065.75
2022-08-11T09:12:45.892Z,101064.41
2022-08-11T09:13:46.514Z,101060.66
2022-08-11T09:15:09.309Z,101056.88
2022-08-11T09:16:17.724Z,101068.28
2022-08-11T09:17:21.566Z,101067.41
2022-08-11T09:18:24.185Z,101071.47
2022-08-11T09:19:27.494Z,101059.09
2022-08-11T09:20:35.128Z,101068.47
2022-08-11T09:21:49.590Z,101067.56
2022-08-11T09:24:59.088Z,101058.41
2022-08-11T09:26:30.574Z,101064.47
2022-08-11T09:27:33.928Z,101057.97
2022-08-11T09:28:36.980Z,101063.22
2022-08-11T09:29:39.441Z,101061.13
2022-08-11T09:30:47.045Z,101056.19
2022-08-11T09:31:49.413Z,101045.56
2022-08-11T09:32:58.288Z,101046.38
2022-08-11T09:34:03.694Z,101052.03
2022-08-11T09:35:06.710Z,101048.38
2022-08-11T09:36:28.366Z,101045.13
2022-08-11T09:37:55.409Z,101040.19
2022-08-11T09:39:21.379Z,101045.47
2022-08-11T09:40:32.415Z,101041.38
2022-08-11T09:42:00.806Z,101043.81
2022-08-11T09:43:24.609Z,101038.56
2022-08-11T09:44:46.397Z,101038.16
2022-08-11T09:45:55.547Z,101040.59
2022-08-11T09:47:01.453Z,101047.53
2022-08-11T09:48:07.484Z,101044.66
2022-08-11T09:49:10.074Z,101048.31
2022-08-11T09:50:16.338Z,101054.44
2022-08-11T09:51:18.720Z,101044.22
2022-08-11T09:52:29.167Z,101043.41
2022-08-11T09:53:40.773Z,101038.47
2022-08-11T09:54:48.069Z,101051.53
2022-08-11T09:55:52.050Z,101037.66
2022-08-11T09:57:13.631Z,101044.19
2022-08-11T09:58:41.495Z,101037.25
2022-08-11T09:59:43.907Z,101038.50
2022-08-11T10:00:49.196Z,101036.81
2022-08-11T10:01:57.285Z,101039.66
2022-08-11T10:03:02.782Z,101036.81
2022-08-11T10:04:12.439Z,101043.78
2022-08-11T10:05:39.058Z,101042.94
2022-08-11T10:07:01.768Z,101033.09
2022-08-11T10:08:11.781Z,101032.69
2022-08-11T10:09:20.632Z,101025.28
2022-08-11T10:10:24.160Z,101028.91
2022-08-11T10:11:27.584Z,101030.09
2022-08-11T10:12:37.326Z,101026.78
2022-08-11T10:14:33.270Z,101025.53
2022-08-11T10:15:59.708Z,101037.16
2022-08-11T10:17:07.546Z,101030.53
2022-08-11T10:18:32.605Z,101030.03
2022-08-11T10:19:37.998Z,101023.47
2022-08-11T10:20:41.182Z,101019.81
2022-08-11T10:22:10.459Z,101018.56
2022-08-11T10:23:32.194Z,101023.41
2022-08-11T10:24:54.275Z,101023.34
2022-08-11T10:26:16.378Z,101029.84
2022-08-11T10:27:19.187Z,101028.59
2022-08-11T10:28:33.508Z,101034.28
2022-08-11T10:30:02.447Z,101030.59
2022-08-11T10:31:29.041Z,101017.94
2022-08-11T10:33:10.602Z,101013.06
2022-08-11T10:34:15.844Z,101022.75
2022-08-11T10:35:21.784Z,101019.81
2022-08-11T10:36:24.601Z,101018.56
2022-08-11T10:38:08.948Z,101019.41
2022-08-11T10:38:52.458Z,101019.34
2022-08-11T10:39:56.463Z,101022.59
2022-08-11T10:41:18.079Z,101006.25
2022-08-11T10:42:57.369Z,101014.78
2022-08-11T10:44:03.633Z,101009.88
2022-08-11T10:45:28.697Z,101009.88
2022-08-11T10:46:51.066Z,100996.00
2022-08-11T10:47:56.260Z,100995.16
2022-08-11T10:49:00.458Z,101012.28
2022-08-11T10:50:23.662Z,101000.78
2022-08-11T10:51:50.773Z,101002.00
2022-08-11T10:53:15.476Z,100992.63
2022-08-11T10:54:37.110Z,100993.00
2022-08-11T10:56:01.347Z,100999.06
2022-08-11T10:57:23.396Z,100989.59
2022-08-11T10:58:44.644Z,100986.66
2022-08-11T10:59:47.892Z,100990.25
2022-08-11T11:00:52.829Z,100981.72
2022-08-11T11:01:58.006Z,100993.03
2022-08-11T11:03:22.125Z,100980.78
2022-08-11T11:04:35.771Z,100984.81
2022-08-11T11:05:39.435Z,100983.94
2022-08-11T11:07:22.456Z,100995.34
2022-08-11T11:08:50.088Z,100986.81
2022-08-11T11:09:58.187Z,100990.84
2022-08-11T11:11:03.589Z,100989.13
2022-08-11T11:12:50.055Z,100996.88
2022-08-11T11:14:11.159Z,100983.75
2022-08-11T11:15:40.631Z,100982.50
2022-08-11T11:17:02.016Z,100977.19
2022-08-11T11:18:09.506Z,100979.22
2022-08-11T11:19:24.059Z,100973.09
2022-08-11T11:20:35.881Z,100975.94
2022-08-11T11:21:43.225Z,100977.97
2022-08-11T11:22:52.519Z,100991.75
2022-08-11T11:24:13.350Z,100985.19
2022-08-11T11:25:18.306Z,100977.03
2022-08-11T11:26:47.219Z,100981.06
2022-08-11T11:28:28.619Z,100972.47
2022-08-11T11:30:03.554Z,100968.34
2022-08-11T11:31:43.247Z,100974.03
2022-08-11T11:33:27.245Z,100973.63
2022-08-11T11:34:52.842Z,100982.09
2022-08-11T11:36:23.580Z,100972.75
2022-08-11T11:37:26.829Z,100964.84
2022-08-11T11:38:29.768Z,100970.94
2022-08-11T11:39:36.751Z,100959.03
2022-08-11T11:40:40.532Z,100958.59
2022-08-11T11:41:43.016Z,100954.09
2022-08-11T11:42:46.387Z,100960.56
2022-08-11T11:43:48.838Z,100949.56
2022-08-11T11:44:56.369Z,100947.09
2022-08-11T11:46:00.050Z,100967.03
2022-08-11T11:47:02.769Z,100958.41
2022-08-11T11:48:06.270Z,100956.34
2022-08-11T11:49:16.984Z,100953.03
2022-08-11T11:50:32.847Z,100959.09
2022-08-11T11:51:37.561Z,100959.84
2022-08-11T11:52:51.551Z,100947.19
2022-08-11T11:53:54.955Z,100944.72
2022-08-11T11:54:58.579Z,100950.81
2022-08-11T11:56:03.458Z,100951.56
2022-08-11T11:57:24.541Z,100951.97
2022-08-11T11:58:47.345Z,100948.28
2022-08-11T12:00:12.134Z,100942.56
2022-08-11T12:01:19.928Z,100949.47
2022-08-11T12:02:22.522Z,100944.53
2022-08-11T12:03:26.698Z,100946.13
2022-08-11T12:04:29.453Z,100940.81
2022-08-11T12:05:34.633Z,100944.75
2022-08-11T12:06:37.680Z,100941.47
2022-08-11T12:08:10.522Z,100939.34
2022-08-11T12:09:18.506Z,100940.19
2022-08-11T12:10:21.517Z,100940.19
2022-08-11T12:11:48.107Z,100944.25
2022-08-11T12:13:09.801Z,100936.50
2022-08-11T12:14:15.668Z,100937.34
2022-08-11T12:16:03.484Z,100928.81
2022-08-11T12:16:46.977Z,100925.13
2022-08-11T12:17:52.916Z,100929.25
2022-08-11T12:18:59.881Z,100926.41
2022-08-11T12:20:04.184Z,100927.25
2022-08-11T12:21:08.728Z,100932.00
2022-08-11T12:22:29.633Z,100927.47
2022-08-11T12:23:53.795Z,100929.13
2022-08-11T12:25:14.670Z,100922.59
2022-08-11T12:26:37.357Z,100918.94
2022-08-11T12:27:40.789Z,100921.78
2022-08-11T12:28:44.476Z,100919.31
2022-08-11T12:29:55.628Z,100916.84
2022-08-11T12:31:01.185Z,100914.38
2022-08-11T12:32:07.778Z,100906.59
2022-08-11T12:33:13.282Z,100918.78
2022-08-11T12:34:22.694Z,100927.69
2022-08-11T12:35:25.025Z,100915.06
2022-08-11T12:36:27.591Z,100913.88
2022-08-11T12:37:43.807Z,100907.38
2022-08-11T12:38:51.505Z,100901.22
2022-08-11T12:40:43.207Z,100910.56
2022-08-11T12:42:02.132Z,100904.06
2022-08-11T12:44:54.300Z,100897.59
2022-08-11T12:46:00.814Z,100906.59
2022-08-11T12:47:04.717Z,100905.78
2022-08-11T12:49:00.731Z,100907.06
2022-08-11T12:50:22.679Z,100904.22
2022-08-11T12:52:10.996Z,100906.22
2022-08-11T12:53:12.249Z,100895.22
2022-08-11T12:54:25.560Z,100890.34
2022-08-11T12:56:04.087Z,100887.88
2022-08-11T12:57:37.164Z,100887.88
2022-08-11T12:58:42.056Z,100892.69
2022-08-11T13:00:04.481Z,100889.84
2022-08-11T13:01:25.949Z,100889.84
2022-08-11T13:02:47.210Z,100878.47
2022-08-11T13:04:08.201Z,100873.97
2022-08-11T13:05:16.000Z,100875.63
2022-08-11T13:06:19.416Z,100880.03
2022-08-11T13:07:23.002Z,100875.16
2022-08-11T13:08:34.812Z,100875.16
2022-08-11T13:09:37.079Z,100871.50
2022-08-11T13:10:58.293Z,100876.81
2022-08-11T13:12:22.774Z,100868.59
2022-08-11T13:13:52.741Z,100879.06
2022-08-11T13:14:48.494Z,100860.31
2022-08-11T13:15:52.185Z,100866.00
2022-08-11T13:17:13.802Z,100864.34
2022-08-11T13:18:23.249Z,100859.84
2022-08-11T13:19:26.687Z,100874.06
2022-08-11T13:20:29.483Z,100875.66
2022-08-11T13:21:31.980Z,100865.47
2022-08-11T13:22:37.817Z,100858.13
2022-08-11T13:23:40.979Z,100871.53
2022-08-11T13:25:04.358Z,100854.09
2022-08-11T13:26:10.835Z,100868.31
2022-08-11T13:27:13.779Z,100858.13
2022-08-11T13:28:18.701Z,100854.00
2022-08-11T13:29:23.436Z,100860.91
2022-08-11T13:30:47.435Z,100858.88
2022-08-11T13:31:53.713Z,100854.41
2022-08-11T13:32:56.456Z,100856.78
2022-08-11T13:33:59.448Z,100859.63
2022-08-11T13:35:02.005Z,100857.97
2022-08-11T13:36:05.151Z,100853.47
2022-08-11T13:37:15.514Z,100853.06
2022-08-11T13:38:22.274Z,100848.56
2022-08-11T13:39:27.637Z,100857.47
2022-08-11T13:40:52.933Z,100844.38
2022-08-11T13:41:56.980Z,100847.59
2022-08-11T13:43:00.411Z,100854.00
2022-08-11T13:44:03.287Z,100850.28
2022-08-11T13:45:07.931Z,100846.53
2022-08-11T13:46:20.481Z,100845.72
2022-08-11T13:47:27.380Z,100845.63
2022-08-11T13:48:32.694Z,100844.00
2022-08-11T13:49:39.976Z,100845.56
2022-08-11T13:51:04.950Z,100844.75
2022-08-11T13:52:13.094Z,100840.25
2022-08-11T13:53:17.469Z,100844.28
2022-08-11T13:54:23.944Z,100838.97
2022-08-11T13:55:33.452Z,100840.16
2022-08-11T13:56:54.234Z,100842.19
2022-08-11T13:58:06.515Z,100838.53
2022-08-11T13:59:27.597Z,100835.97
2022-08-11T14:00:32.689Z,100829.56
2022-08-11T14:02:22.405Z,100834.41
2022-08-11T14:03:04.788Z,100840.09
2022-08-11T14:04:30.646Z,100836.81
2022-08-11T14:05:39.094Z,100829.47
2022-08-11T14:06:49.421Z,100824.59
2022-08-11T14:07:53.840Z,100832.31
2022-08-11T14:08:56.567Z,100829.84
2022-08-11T14:10:01.530Z,100828.22
2022-08-11T14:12:22.030Z,100816.84
2022-08-11T14:13:15.744Z,100823.34
2022-08-11T14:14:23.633Z,100843.59
2022-08-11T14:15:32.086Z,100817.22
2022-08-11T14:16:40.593Z,100826.56
2022-08-11T14:17:48.653Z,100822.91
2022-08-11T14:18:54.866Z,100822.91
2022-08-11T14:19:59.348Z,100814.38
2022-08-11T14:21:23.642Z,100816.41
2022-08-11T14:22:26.456Z,100812.34
2022-08-11T14:23:47.532Z,100811.53
2022-08-11T14:24:50.603Z,100813.19
2022-08-11T14:26:13.672Z,100808.69
2022-08-11T14:28:25.687Z,100815.19
2022-08-11T14:28:45.073Z,100810.72
2022-08-11T14:29:56.540Z,100810.72
2022-08-11T14:31:02.048Z,100805.06
2022-08-11T14:32:06.648Z,100806.66
2022-08-11T14:33:16.579Z,100811.06
2022-08-11T14:34:22.730Z,100815.94
2022-08-11T14:35:28.257Z,100813.88
2022-08-11T14:36:35.370Z,100798.44
2022-08-11T14:37:41.194Z,100799.28
2022-08-11T14:38:44.418Z,100799.28
2022-08-11T14:39:50.539Z,100802.13
2022-08-11T14:41:15.102Z,100804.97
2022-08-11T14:42:38.170Z,100801.28
2022-08-11T14:44:13.277Z,100799.28
2022-08-11T14:45:54.212Z,100802.50
2022-08-11T14:47:05.866Z,100803.69
2022-08-11T14:48:27.809Z,100802.84
2022-08-11T14:49:30.474Z,100807.69
2022-08-11T14:50:34.423Z,100804.84
2022-08-11T14:51:37.179Z,100800.34
2022-08-11T14:53:08.357Z,100799.53
2022-08-11T14:54:29.475Z,100799.16
2022-08-11T14:55:55.794Z,100800.75
2022-08-11T14:57:02.500Z,100797.09
2022-08-11T14:58:06.239Z,100796.63
2022-08-11T14:59:08.838Z,100787.28
2022-08-11T15:00:15.711Z,100790.94
2022-08-11T15:01:36.886Z,100784.00
2022-08-11T15:02:58.790Z,100799.75
2022-08-11T15:04:35.145Z,100802.13